createdAt,value
2022-11-16T00:15:53.834Z,63.65
2022-11-16T00:37:17.172Z,49.75
2022-11-16T00:40:02.980Z,50.28
2022-11-16T00:42:48.765Z,47.72
2022-11-16T01:19:17.636Z,46.80
2022-11-16T01:22:03.847Z,47.80
2022-11-16T01:24:49.870Z,50.72
2022-11-16T01:33:28.926Z,50.17
2022-11-16T01:36:15.477Z,48.50
2022-11-16T01:39:02.753Z,49.78
2022-11-16T02:01:48.375Z,44.72
2022-11-16T02:04:34.322Z,48.55
2022-11-16T02:31:17.913Z,42.70
2022-11-16T02:34:05.945Z,41.92
2022-11-16T02:36:58.895Z,43.65
2022-11-16T02:39:48.573Z,41.65
2022-11-16T02:42:44.574Z,43.03
2022-11-16T02:45:33.397Z,41.15
2022-11-16T02:48:34.128Z,42.17
2022-11-16T02:51:21.379Z,42.58
2022-11-16T02:54:16.388Z,41.30
2022-11-16T02:57:05.483Z,42.08
2022-11-16T02:59:55.668Z,42.65
2022-11-16T03:03:20.209Z,41.45
2022-11-16T03:09:01.023Z,38.28
2022-11-16T03:14:56.798Z,38.20
2022-11-16T03:17:45.194Z,35.88
2022-11-16T03:20:34.085Z,35.95
2022-11-16T03:23:20.100Z,36.20
2022-11-16T03:26:08.581Z,37.05
2022-11-16T03:29:05.429Z,36.17
2022-11-16T03:31:54.600Z,35.08
2022-11-16T03:34:42.087Z,33.38
2022-11-16T03:37:28.739Z,33.38
2022-11-16T03:40:17.520Z,34.25
2022-11-16T03:43:04.141Z,35.25
2022-11-16T03:45:50.514Z,33.70
2022-11-16T03:48:38.919Z,32.25
2022-11-16T03:51:31.278Z,34.03
2022-11-16T03:54:16.980Z,34.45
2022-11-16T03:57:03.727Z,33.65
2022-11-16T03:59:49.746Z,30.30
2022-11-16T04:02:35.516Z,34.17
2022-11-16T04:05:40.603Z,32.50
2022-11-16T04:08:45.848Z,32.55
2022-11-16T04:11:51.461Z,32.65
2022-11-16T04:14:55.949Z,30.73
2022-11-16T04:18:02.009Z,30.30
2022-11-16T04:21:06.534Z,31.08
2022-11-16T04:24:11.096Z,28.75
2022-11-16T04:27:18.338Z,28.95
2022-11-16T04:30:05.086Z,29.33
2022-11-16T04:33:11.942Z,30.17
2022-11-16T04:36:20.611Z,31.02
2022-11-16T04:39:06.959Z,29.92
2022-11-16T04:42:11.853Z,30.02
2022-11-16T04:45:16.945Z,29.23
2022-11-16T04:48:10.421Z,30.15
2022-11-16T04:50:57.241Z,28.55
2022-11-16T04:53:43.741Z,30.70
2022-11-16T04:56:37.399Z,29.52
2022-11-16T04:59:24.423Z,30.80
2022-11-16T05:02:11.491Z,28.90
2022-11-16T05:15:07.569Z,28.63
2022-11-16T05:17:55.768Z,28.33
2022-11-16T05:25:14.538Z,25.75
2022-11-16T06:19:31.055Z,23.98
2022-11-16T06:22:36.897Z,25.30
2022-11-16T06:25:23.194Z,25.42
2022-11-16T06:37:26.590Z,24.15
2022-11-16T06:40:14.033Z,27.20
2022-11-16T06:43:02.981Z,28.15
2022-11-16T06:45:50.774Z,27.00
2022-11-16T06:48:37.277Z,27.92
2022-11-16T06:51:27.730Z,26.50
2022-11-16T06:57:22.761Z,27.77
2022-11-16T07:00:10.792Z,28.10
2022-11-16T07:02:57.339Z,26.63
2022-11-16T07:05:43.181Z,26.55
2022-11-16T07:08:33.515Z,26.23
2022-11-16T07:11:20.386Z,24.67
2022-11-16T07:14:06.871Z,25.92
2022-11-16T07:16:59.078Z,29.13
2022-11-16T07:19:53.595Z,31.10
2022-11-16T07:22:40.020Z,25.55
2022-11-16T07:25:32.443Z,27.58
2022-11-16T07:28:18.762Z,26.02
2022-11-16T07:31:07.792Z,25.25
2022-11-16T07:33:54.123Z,27.95
2022-11-16T07:37:01.690Z,32.60
2022-11-16T07:39:47.686Z,31.52
2022-11-16T07:42:34.005Z,39.15
2022-11-16T07:50:54.929Z,36.25
2022-11-16T07:53:43.091Z,34.63
2022-11-16T07:56:29.257Z,34.50
2022-11-16T07:59:15.180Z,33.03
2022-11-16T08:02:04.590Z,36.28
2022-11-16T08:04:52.146Z,33.55
2022-11-16T08:07:43.490Z,37.90
2022-11-16T08:10:32.931Z,36.25
2022-11-16T08:13:19.127Z,38.20
2022-11-16T08:16:18.429Z,37.38
2022-11-16T08:19:06.406Z,39.72
2022-11-16T08:21:52.896Z,41.05
2022-11-16T08:24:39.319Z,63.92
2022-11-16T08:27:25.638Z,103.18
2022-11-16T08:30:14.608Z,54.38
2022-11-16T08:33:08.157Z,70.32
2022-11-16T08:35:55.180Z,44.38
2022-11-16T08:38:41.231Z,46.33
2022-11-16T08:41:27.506Z,45.88
2022-11-16T08:44:15.465Z,43.08
2022-11-16T08:47:04.586Z,46.00
2022-11-16T08:49:56.002Z,46.38
2022-11-16T08:52:45.551Z,104.30
2022-11-16T08:55:32.975Z,107.03
2022-11-16T08:58:19.021Z,153.57
2022-11-16T09:01:14.027Z,98.15
2022-11-16T09:04:00.680Z,54.30
2022-11-16T09:06:46.552Z,57.45
2022-11-16T09:09:32.407Z,61.67
2022-11-16T09:12:18.568Z,61.40
2022-11-16T09:15:06.171Z,53.67
2022-11-16T09:17:54.909Z,52.88
2022-11-16T09:20:45.577Z,51.08
2022-11-16T09:23:31.269Z,49.15
2022-11-16T09:26:20.940Z,47.33
2022-11-16T09:29:07.334Z,51.47
2022-11-16T09:31:53.796Z,54.75
2022-11-16T09:34:39.752Z,51.08
2022-11-16T09:37:25.693Z,42.00
2022-11-16T09:40:12.629Z,44.67
2022-11-16T09:43:28.959Z,37.30
2022-11-16T09:46:32.693Z,35.53
2022-11-16T09:49:26.144Z,36.28
2022-11-16T09:52:34.752Z,44.10
2022-11-16T09:55:26.143Z,41.35
2022-11-16T09:58:16.626Z,35.50
2022-11-16T10:01:15.130Z,31.27
2022-11-16T10:04:38.422Z,30.42
2022-11-16T10:07:42.064Z,31.83
2022-11-16T10:10:34.927Z,30.83
2022-11-16T10:13:50.955Z,29.88
2022-11-16T10:16:46.039Z,28.98
2022-11-16T10:19:49.464Z,30.15
2022-11-16T10:23:02.538Z,33.45
2022-11-16T10:25:54.463Z,29.55
2022-11-16T10:29:17.137Z,34.22
2022-11-16T10:32:12.485Z,29.27
2022-11-16T10:35:43.719Z,34.58
2022-11-16T10:38:31.137Z,30.58
2022-11-16T10:41:43.468Z,27.77
2022-11-16T10:44:58.721Z,26.70
2022-11-16T10:48:00.642Z,22.02
2022-11-16T10:50:48.088Z,28.00
2022-11-16T10:53:38.882Z,27.45
2022-11-16T10:56:32.024Z,30.77
2022-11-16T10:59:21.195Z,33.80
2022-11-16T11:02:34.843Z,33.35
2022-11-16T11:05:21.388Z,28.83
2022-11-16T11:08:11.369Z,27.52
2022-11-16T11:11:01.963Z,27.90
2022-11-16T11:13:47.668Z,26.20
2022-11-16T11:16:33.787Z,24.95
2022-11-16T11:19:25.710Z,26.00
2022-11-16T11:22:14.437Z,33.55
2022-11-16T11:25:01.957Z,31.98
2022-11-16T11:27:48.096Z,21.17
2022-11-16T11:30:34.397Z,18.50
2022-11-16T11:33:23.858Z,17.40
2022-11-16T11:36:19.226Z,17.73
2022-11-16T11:39:06.610Z,16.95
2022-11-16T11:42:25.150Z,15.68
2022-11-16T11:45:13.334Z,14.57
2022-11-16T11:48:36.850Z,14.15
2022-11-16T11:51:40.679Z,13.15
2022-11-16T11:54:29.558Z,12.60
2022-11-16T11:57:20.725Z,12.60
2022-11-16T12:00:08.672Z,12.13
2022-11-16T12:03:51.440Z,12.18
2022-11-16T12:06:52.728Z,11.10
2022-11-16T12:10:25.515Z,11.25
2022-11-16T12:13:41.590Z,11.88
2022-11-16T12:16:59.680Z,13.15
2022-11-16T12:20:08.406Z,11.07
2022-11-16T12:23:04.357Z,12.38
2022-11-16T12:25:56.425Z,10.48
2022-11-16T12:29:10.390Z,10.13
2022-11-16T12:33:17.520Z,13.90
2022-11-16T12:36:24.282Z,14.20
2022-11-16T12:43:46.523Z,12.63
2022-11-16T12:51:41.858Z,9.93
2022-11-16T12:55:28.006Z,10.57
2022-11-16T12:58:17.563Z,11.10
2022-11-16T13:01:45.780Z,13.10
2022-11-16T13:04:42.163Z,11.90
2022-11-16T13:07:33.359Z,7.28
2022-11-16T13:10:27.009Z,8.25
2022-11-16T13:13:40.112Z,9.35
2022-11-16T13:16:26.403Z,12.70
2022-11-16T13:19:13.817Z,20.65
2022-11-16T13:22:41.192Z,19.65
2022-11-16T13:26:10.594Z,12.15
2022-11-16T13:29:27.871Z,16.70
2022-11-16T13:32:22.702Z,18.05
2022-11-16T13:35:14.238Z,17.63
2022-11-16T13:38:02.262Z,16.85
2022-11-16T13:40:48.014Z,14.95
2022-11-16T13:43:33.893Z,14.32
2022-11-16T13:46:53.768Z,13.70
2022-11-16T13:50:13.473Z,14.07
2022-11-16T13:54:10.951Z,17.75
2022-11-16T13:56:52.989Z,18.02
2022-11-16T13:59:39.176Z,14.98
2022-11-16T14:02:31.633Z,13.85
2022-11-16T14:05:29.649Z,12.95
2022-11-16T14:08:24.461Z,15.30
2022-11-16T14:11:39.728Z,18.98
2022-11-16T14:15:18.594Z,19.27
2022-11-16T14:18:07.555Z,17.08
2022-11-16T14:21:09.756Z,12.90
2022-11-16T14:23:55.847Z,16.30
2022-11-16T14:26:59.284Z,15.93
2022-11-16T14:30:05.726Z,14.43
2022-11-16T14:32:53.692Z,30.80
2022-11-16T14:35:40.217Z,17.60
2022-11-16T14:38:37.998Z,21.00
2022-11-16T14:41:25.030Z,34.50
2022-11-16T14:44:11.734Z,21.17
2022-11-16T14:46:57.951Z,21.40
2022-11-16T14:49:46.848Z,22.48
2022-11-16T14:52:38.935Z,20.83
2022-11-16T14:55:27.906Z,21.23
2022-11-16T14:58:23.295Z,18.90
2022-11-16T15:01:14.431Z,19.95
2022-11-16T15:04:02.776Z,17.98
2022-11-16T15:06:55.608Z,18.10
2022-11-16T15:09:44.952Z,21.85
2022-11-16T15:12:44.834Z,23.92
2022-11-16T15:15:31.839Z,37.25
2022-11-16T15:18:21.000Z,32.15
2022-11-16T15:21:22.791Z,25.20
2022-11-16T15:24:35.669Z,34.53
2022-11-16T15:27:37.055Z,21.43
2022-11-16T15:30:40.895Z,20.60
2022-11-16T15:38:35.189Z,20.25
2022-11-16T15:41:33.292Z,15.68
2022-11-16T15:47:43.424Z,15.70
2022-11-16T15:50:35.154Z,12.43
2022-11-16T15:53:42.947Z,17.27
2022-11-16T15:56:33.098Z,18.25
2022-11-16T15:59:28.711Z,16.77
2022-11-16T16:02:21.506Z,16.95
2022-11-16T16:05:07.868Z,13.38
2022-11-16T16:07:59.586Z,12.70
2022-11-16T16:10:45.522Z,11.73
2022-11-16T16:13:45.655Z,12.65
2022-11-16T16:16:40.047Z,11.50
2022-11-16T16:20:20.988Z,11.60
2022-11-16T16:23:10.570Z,13.23
2022-11-16T16:26:05.359Z,9.55
2022-11-16T16:28:52.880Z,10.23
2022-11-16T16:31:39.404Z,10.43
2022-11-16T16:34:25.423Z,11.43
2022-11-16T16:37:12.224Z,11.57
2022-11-16T16:39:59.250Z,12.85
2022-11-16T16:42:48.163Z,12.80
2022-11-16T16:46:09.735Z,10.80
2022-11-16T16:48:55.708Z,12.50
2022-11-16T16:52:46.248Z,15.25
2022-11-16T16:55:43.439Z,19.25
2022-11-16T16:58:29.387Z,18.88
2022-11-16T17:01:15.641Z,20.55
2022-11-16T17:04:01.430Z,22.35
2022-11-16T17:06:48.092Z,20.75
2022-11-16T17:09:34.072Z,20.60
2022-11-16T17:12:19.963Z,19.42
2022-11-16T17:15:06.567Z,20.33
2022-11-16T17:17:52.970Z,19.85
2022-11-16T17:20:45.318Z,19.08
2022-11-16T17:23:32.401Z,20.13
2022-11-16T17:26:20.275Z,22.05
2022-11-16T17:29:06.449Z,25.88
2022-11-16T17:31:52.547Z,23.65
2022-11-16T17:34:41.481Z,23.55
2022-11-16T17:37:27.339Z,22.77
2022-11-16T17:40:13.931Z,25.52
2022-11-16T17:42:59.932Z,26.52
2022-11-16T17:45:45.924Z,25.90
2022-11-16T17:48:31.964Z,26.70
2022-11-16T17:51:20.090Z,26.33
2022-11-16T17:54:06.518Z,27.88
2022-11-16T17:56:52.797Z,28.23
2022-11-16T17:59:38.939Z,28.23
2022-11-16T18:02:25.813Z,28.42
2022-11-16T18:05:11.979Z,26.38
2022-11-16T18:07:58.080Z,27.85
2022-11-16T18:10:44.686Z,26.77
2022-11-16T18:13:30.580Z,26.52
2022-11-16T18:16:18.226Z,26.35
2022-11-16T18:19:06.001Z,26.88
2022-11-16T18:21:52.154Z,24.45
2022-11-16T18:24:38.036Z,25.02
2022-11-16T18:27:23.854Z,26.02
2022-11-16T18:30:10.351Z,26.27
2022-11-16T18:32:56.364Z,24.80
2022-11-16T18:35:43.010Z,26.25
2022-11-16T18:38:28.991Z,28.95
2022-11-16T18:41:19.646Z,27.30
2022-11-16T18:44:06.329Z,29.85
2022-11-16T18:46:52.162Z,29.77
2022-11-16T18:49:38.045Z,28.85
2022-11-16T18:52:23.859Z,27.23
2022-11-16T18:55:10.084Z,27.02
2022-11-16T18:57:56.283Z,25.65
2022-11-16T19:00:45.464Z,23.80
2022-11-16T19:03:32.291Z,23.02
2022-11-16T19:06:18.793Z,21.63
2022-11-16T19:09:06.357Z,22.52
2022-11-16T19:11:52.357Z,22.25
2022-11-16T19:14:39.347Z,24.38
2022-11-16T19:17:27.002Z,22.35
2022-11-16T19:20:13.698Z,23.00
2022-11-16T19:22:59.524Z,22.63
2022-11-16T19:25:46.024Z,22.58
2022-11-16T19:28:36.962Z,23.95
2022-11-16T19:31:28.791Z,22.13
2022-11-16T19:34:15.147Z,25.10
2022-11-16T19:37:01.199Z,19.65
2022-11-16T19:39:47.411Z,21.65
2022-11-16T19:42:33.371Z,18.30
2022-11-16T19:45:22.317Z,17.95
2022-11-16T19:48:08.465Z,19.63
2022-11-16T19:50:54.268Z,20.50
2022-11-16T19:53:40.512Z,20.20
2022-11-16T19:56:26.774Z,17.10
2022-11-16T19:59:12.761Z,17.20
2022-11-16T20:01:59.008Z,16.48
2022-11-16T20:04:45.625Z,18.50
2022-11-16T20:07:32.414Z,17.27
2022-11-16T20:10:18.827Z,17.00
2022-11-16T20:13:05.171Z,17.70
2022-11-16T20:15:51.122Z,18.55
2022-11-16T20:18:38.622Z,18.92
2022-11-16T20:21:35.546Z,18.63
2022-11-16T20:24:23.717Z,19.33
2022-11-16T20:27:09.783Z,19.23
2022-11-16T20:29:55.600Z,17.67
2022-11-16T20:32:41.655Z,12.35
2022-11-16T20:35:27.749Z,15.32
2022-11-16T20:38:15.155Z,15.13
2022-11-16T20:41:11.136Z,15.25
2022-11-16T20:43:58.483Z,14.57
2022-11-16T20:46:45.277Z,15.93
2022-11-16T20:49:31.390Z,15.50
2022-11-16T20:52:17.217Z,15.90
2022-11-16T20:55:03.472Z,15.80
2022-11-16T20:57:49.685Z,15.02
2022-11-16T21:00:35.597Z,14.75
2022-11-16T21:03:21.485Z,13.68
2022-11-16T21:06:08.873Z,15.05
2022-11-16T21:08:55.052Z,15.85
2022-11-16T21:12:00.247Z,16.33
2022-11-16T21:14:46.763Z,19.23
2022-11-16T21:17:32.705Z,17.63
2022-11-16T21:20:27.308Z,17.55
2022-11-16T21:23:16.230Z,18.80
2022-11-16T21:26:13.910Z,18.73
2022-11-16T21:29:01.894Z,17.20
2022-11-16T21:31:48.287Z,18.88
2022-11-16T21:34:39.808Z,18.35
2022-11-16T21:37:26.254Z,19.05
2022-11-16T21:40:12.980Z,18.73
2022-11-16T21:42:58.973Z,19.23
2022-11-16T21:45:46.116Z,20.45
2022-11-16T21:48:45.373Z,21.05
2022-11-16T21:51:31.520Z,21.55
2022-11-16T21:54:17.444Z,22.20
2022-11-16T21:57:03.309Z,21.92
2022-11-16T21:59:49.399Z,21.98
2022-11-16T22:02:35.159Z,22.67
2022-11-16T22:05:39.394Z,19.73
2022-11-16T22:08:25.685Z,19.52
2022-11-16T22:11:12.187Z,20.38
2022-11-16T22:13:57.803Z,21.05
2022-11-16T22:16:43.544Z,20.23
2022-11-16T22:19:29.301Z,20.90
2022-11-16T22:22:16.440Z,22.08
2022-11-16T22:25:02.875Z,19.70
2022-11-16T22:28:13.796Z,21.42
2022-11-16T22:31:01.277Z,20.52
2022-11-16T22:33:52.007Z,24.35
2022-11-16T22:36:37.928Z,23.02
2022-11-16T22:39:23.909Z,25.00
2022-11-16T22:42:10.230Z,24.20
2022-11-16T22:44:55.842Z,23.92
2022-11-16T22:47:41.578Z,21.95
2022-11-16T22:50:27.502Z,22.70
2022-11-16T22:53:13.300Z,23.40
2022-11-16T22:56:07.395Z,23.50
2022-11-16T22:58:53.578Z,22.02
2022-11-16T23:01:39.675Z,22.98
2022-11-16T23:04:25.866Z,23.55
2022-11-16T23:07:11.945Z,23.55
2022-11-16T23:09:57.938Z,29.33
2022-11-16T23:13:03.232Z,26.52
2022-11-16T23:15:49.294Z,30.38
2022-11-16T23:18:35.468Z,27.25
2022-11-16T23:21:40.279Z,26.15
2022-11-16T23:24:46.121Z,21.77
2022-11-16T23:27:40.122Z,20.48
2022-11-16T23:30:26.642Z,20.45
2022-11-16T23:33:12.502Z,20.38
2022-11-16T23:35:58.858Z,21.60
2022-11-16T23:38:44.970Z,20.80
2022-11-16T23:41:51.482Z,21.92
2022-11-16T23:44:37.728Z,21.25
2022-11-16T23:47:23.684Z,23.27
2022-11-16T23:50:10.129Z,24.02
2022-11-16T23:52:55.940Z,21.77
2022-11-16T23:55:41.896Z,20.83
2022-11-16T23:58:27.640Z,20.23
